sensor_id;sensor_type;location;lat;lon;timestamp;P1;durP1;ratioP1;P2;durP2;ratioP2
18019;SDS011;9135;48.362;10.878;2023-05-07T00:01:44;1.58;;;1.58;;
18019;SDS011;9135;48.362;10.878;2023-05-07T00:04:10;3.50;;;2.30;;
18019;SDS011;9135;48.362;10.878;2023-05-07T00:06:36;1.20;;;1.20;;
18019;SDS011;9135;48.362;10.878;2023-05-07T00:09:02;3.33;;;2.15;;
18019;SDS011;9135;48.362;10.878;2023-05-07T00:11:29;2.45;;;2.25;;
18019;SDS011;9135;48.362;10.878;2023-05-07T00:13:55;2.60;;;2.40;;
18019;SDS011;9135;48.362;10.878;2023-05-07T00:16:21;1.77;;;1.70;;
18019;SDS011;9135;48.362;10.878;2023-05-07T00:18:47;4.90;;;1.90;;
18019;SDS011;9135;48.362;10.878;2023-05-07T00:21:13;5.47;;;2.70;;
18019;SDS011;9135;48.362;10.878;2023-05-07T00:23:39;3.05;;;2.85;;
18019;SDS011;9135;48.362;10.878;2023-05-07T00:26:05;1.65;;;1.55;;
18019;SDS011;9135;48.362;10.878;2023-05-07T00:28:31;1.58;;;1.48;;
18019;SDS011;9135;48.362;10.878;2023-05-07T00:30:57;1.90;;;1.77;;
18019;SDS011;9135;48.362;10.878;2023-05-07T00:33:23;2.58;;;2.25;;
18019;SDS011;9135;48.362;10.878;2023-05-07T00:35:51;1.92;;;1.83;;
18019;SDS011;9135;48.362;10.878;2023-05-07T00:38:19;1.83;;;1.73;;
18019;SDS011;9135;48.362;10.878;2023-05-07T00:40:45;3.08;;;2.35;;
18019;SDS011;9135;48.362;10.878;2023-05-07T00:43:11;2.97;;;2.78;;
18019;SDS011;9135;48.362;10.878;2023-05-07T00:45:37;3.10;;;2.90;;
18019;SDS011;9135;48.362;10.878;2023-05-07T00:48:04;4.40;;;2.47;;
18019;SDS011;9135;48.362;10.878;2023-05-07T00:50:30;1.83;;;1.73;;
18019;SDS011;9135;48.362;10.878;2023-05-07T00:52:56;2.22;;;2.13;;
18019;SDS011;9135;48.362;10.878;2023-05-07T00:55:23;2.70;;;1.95;;
18019;SDS011;9135;48.362;10.878;2023-05-07T00:57:50;3.78;;;2.30;;
18019;SDS011;9135;48.362;10.878;2023-05-07T01:00:16;2.70;;;2.50;;
18019;SDS011;9135;48.362;10.878;2023-05-07T01:02:43;1.92;;;1.75;;
18019;SDS011;9135;48.362;10.878;2023-05-07T01:05:10;2.15;;;1.98;;
18019;SDS011;9135;48.362;10.878;2023-05-07T01:07:37;3.03;;;2.80;;
18019;SDS011;9135;48.362;10.878;2023-05-07T01:10:04;2.75;;;2.28;;
18019;SDS011;9135;48.362;10.878;2023-05-07T01:12:31;2.60;;;2.30;;
18019;SDS011;9135;48.362;10.878;2023-05-07T01:14:57;2.92;;;1.75;;
18019;SDS011;9135;48.362;10.878;2023-05-07T01:17:23;2.92;;;2.72;;
18019;SDS011;9135;48.362;10.878;2023-05-07T01:19:50;3.65;;;3.35;;
18019;SDS011;9135;48.362;10.878;2023-05-07T01:22:22;3.90;;;2.00;;
18019;SDS011;9135;48.362;10.878;2023-05-07T01:24:48;2.75;;;2.40;;
18019;SDS011;9135;48.362;10.878;2023-05-07T01:27:15;2.05;;;1.70;;
18019;SDS011;9135;48.362;10.878;2023-05-07T01:29:41;2.85;;;2.63;;
18019;SDS011;9135;48.362;10.878;2023-05-07T01:32:07;3.97;;;2.58;;
18019;SDS011;9135;48.362;10.878;2023-05-07T01:34:33;2.42;;;2.22;;
18019;SDS011;9135;48.362;10.878;2023-05-07T01:37:00;2.00;;;1.90;;
18019;SDS011;9135;48.362;10.878;2023-05-07T01:39:28;2.80;;;1.85;;
18019;SDS011;9135;48.362;10.878;2023-05-07T01:41:54;3.10;;;1.85;;
18019;SDS011;9135;48.362;10.878;2023-05-07T01:44:21;1.98;;;1.75;;
18019;SDS011;9135;48.362;10.878;2023-05-07T01:46:48;1.95;;;1.85;;
18019;SDS011;9135;48.362;10.878;2023-05-07T01:49:14;3.30;;;1.97;;
18019;SDS011;9135;48.362;10.878;2023-05-07T01:51:40;1.80;;;1.70;;
18019;SDS011;9135;48.362;10.878;2023-05-07T01:54:07;1.83;;;1.33;;
18019;SDS011;9135;48.362;10.878;2023-05-07T01:56:33;1.47;;;1.30;;
18019;SDS011;9135;48.362;10.878;2023-05-07T01:58:59;2.28;;;2.00;;
18019;SDS011;9135;48.362;10.878;2023-05-07T02:01:26;1.43;;;1.40;;
18019;SDS011;9135;48.362;10.878;2023-05-07T02:03:52;2.13;;;1.90;;
18019;SDS011;9135;48.362;10.878;2023-05-07T02:06:19;6.43;;;2.60;;
18019;SDS011;9135;48.362;10.878;2023-05-07T02:08:45;1.63;;;1.53;;
18019;SDS011;9135;48.362;10.878;2023-05-07T02:11:11;2.13;;;1.87;;
18019;SDS011;9135;48.362;10.878;2023-05-07T02:13:37;2.03;;;1.83;;
18019;SDS011;9135;48.362;10.878;2023-05-07T02:16:03;1.97;;;1.83;;
18019;SDS011;9135;48.362;10.878;2023-05-07T02:18:30;2.30;;;2.10;;
18019;SDS011;9135;48.362;10.878;2023-05-07T02:20:56;1.67;;;1.57;;
18019;SDS011;9135;48.362;10.878;2023-05-07T02:23:22;1.67;;;1.63;;
18019;SDS011;9135;48.362;10.878;2023-05-07T02:25:48;2.10;;;1.77;;
18019;SDS011;9135;48.362;10.878;2023-05-07T02:28:14;1.80;;;1.30;;
18019;SDS011;9135;48.362;10.878;2023-05-07T02:30:40;2.27;;;1.43;;
18019;SDS011;9135;48.362;10.878;2023-05-07T02:33:07;2.13;;;1.93;;
18019;SDS011;9135;48.362;10.878;2023-05-07T02:35:33;1.67;;;1.60;;
18019;SDS011;9135;48.362;10.878;2023-05-07T02:37:59;3.00;;;1.88;;
18019;SDS011;9135;48.362;10.878;2023-05-07T02:40:25;1.83;;;1.50;;
18019;SDS011;9135;48.362;10.878;2023-05-07T02:42:52;1.30;;;1.30;;
18019;SDS011;9135;48.362;10.878;2023-05-07T02:45:18;2.07;;;1.87;;
18019;SDS011;9135;48.362;10.878;2023-05-07T02:47:44;1.83;;;1.73;;
18019;SDS011;9135;48.362;10.878;2023-05-07T02:50:10;2.10;;;2.00;;
18019;SDS011;9135;48.362;10.878;2023-05-07T02:52:36;4.53;;;2.80;;
18019;SDS011;9135;48.362;10.878;2023-05-07T02:55:02;6.93;;;1.60;;
18019;SDS011;9135;48.362;10.878;2023-05-07T02:57:28;2.60;;;2.40;;
18019;SDS011;9135;48.362;10.878;2023-05-07T02:59:54;3.07;;;2.47;;
18019;SDS011;9135;48.362;10.878;2023-05-07T03:02:20;1.83;;;1.73;;
18019;SDS011;9135;48.362;10.878;2023-05-07T03:04:46;2.13;;;1.93;;
18019;SDS011;9135;48.362;10.878;2023-05-07T03:07:12;1.77;;;1.67;;
18019;SDS011;9135;48.362;10.878;2023-05-07T03:09:38;1.58;;;1.33;;
18019;SDS011;9135;48.362;10.878;2023-05-07T03:12:04;2.30;;;1.80;;
18019;SDS011;9135;48.362;10.878;2023-05-07T03:14:30;2.57;;;2.37;;
18019;SDS011;9135;48.362;10.878;2023-05-07T03:16:56;1.97;;;1.70;;
18019;SDS011;9135;48.362;10.878;2023-05-07T03:19:22;1.87;;;1.77;;
18019;SDS011;9135;48.362;10.878;2023-05-07T03:21:48;2.10;;;1.90;;
18019;SDS011;9135;48.362;10.878;2023-05-07T03:24:14;2.13;;;2.00;;
18019;SDS011;9135;48.362;10.878;2023-05-07T03:26:40;1.67;;;1.63;;
18019;SDS011;9135;48.362;10.878;2023-05-07T03:29:06;2.93;;;2.00;;
18019;SDS011;9135;48.362;10.878;2023-05-07T03:31:32;10.50;;;2.20;;
18019;SDS011;9135;48.362;10.878;2023-05-07T03:33:58;4.00;;;2.10;;
18019;SDS011;9135;48.362;10.878;2023-05-07T03:36:24;1.87;;;1.77;;
18019;SDS011;9135;48.362;10.878;2023-05-07T03:38:53;2.27;;;2.17;;
18019;SDS011;9135;48.362;10.878;2023-05-07T03:41:19;1.77;;;1.63;;
18019;SDS011;9135;48.362;10.878;2023-05-07T03:43:45;1.83;;;1.80;;
18019;SDS011;9135;48.362;10.878;2023-05-07T03:46:11;1.87;;;1.60;;
18019;SDS011;9135;48.362;10.878;2023-05-07T03:48:37;1.63;;;1.53;;
18019;SDS011;9135;48.362;10.878;2023-05-07T03:51:03;3.03;;;1.60;;
18019;SDS011;9135;48.362;10.878;2023-05-07T03:53:29;1.67;;;1.67;;
18019;SDS011;9135;48.362;10.878;2023-05-07T03:55:55;1.80;;;1.70;;
18019;SDS011;9135;48.362;10.878;2023-05-07T03:58:21;1.93;;;1.83;;
18019;SDS011;9135;48.362;10.878;2023-05-07T04:00:48;2.60;;;2.40;;
18019;SDS011;9135;48.362;10.878;2023-05-07T04:03:14;6.03;;;3.30;;
18019;SDS011;9135;48.362;10.878;2023-05-07T04:05:40;2.10;;;1.70;;
18019;SDS011;9135;48.362;10.878;2023-05-07T04:08:06;1.67;;;1.50;;
18019;SDS011;9135;48.362;10.878;2023-05-07T04:10:32;1.40;;;1.33;;
18019;SDS011;9135;48.362;10.878;2023-05-07T04:12:58;4.40;;;3.07;;
18019;SDS011;9135;48.362;10.878;2023-05-07T04:15:25;2.73;;;2.53;;
18019;SDS011;9135;48.362;10.878;2023-05-07T04:17:51;3.30;;;2.03;;
18019;SDS011;9135;48.362;10.878;2023-05-07T04:20:17;3.20;;;2.47;;
18019;SDS011;9135;48.362;10.878;2023-05-07T04:22:43;7.37;;;2.60;;
18019;SDS011;9135;48.362;10.878;2023-05-07T04:25:09;2.13;;;2.03;;
18019;SDS011;9135;48.362;10.878;2023-05-07T04:27:35;1.80;;;1.50;;
18019;SDS011;9135;48.362;10.878;2023-05-07T04:30:02;2.47;;;1.87;;
18019;SDS011;9135;48.362;10.878;2023-05-07T04:32:28;1.97;;;1.87;;
18019;SDS011;9135;48.362;10.878;2023-05-07T04:34:55;1.83;;;1.73;;
18019;SDS011;9135;48.362;10.878;2023-05-07T04:37:21;2.33;;;2.00;;
18019;SDS011;9135;48.362;10.878;2023-05-07T04:39:47;2.43;;;2.20;;
18019;SDS011;9135;48.362;10.878;2023-05-07T04:42:17;1.90;;;1.80;;
18019;SDS011;9135;48.362;10.878;2023-05-07T04:44:44;2.03;;;1.90;;
18019;SDS011;9135;48.362;10.878;2023-05-07T04:47:10;2.70;;;2.50;;
18019;SDS011;9135;48.362;10.878;2023-05-07T04:49:37;2.00;;;1.90;;
18019;SDS011;9135;48.362;10.878;2023-05-07T04:52:03;2.28;;;2.08;;
18019;SDS011;9135;48.362;10.878;2023-05-07T04:54:29;2.42;;;2.17;;
18019;SDS011;9135;48.362;10.878;2023-05-07T04:56:55;2.50;;;2.40;;
18019;SDS011;9135;48.362;10.878;2023-05-07T04:59:22;2.97;;;2.43;;
18019;SDS011;9135;48.362;10.878;2023-05-07T05:01:48;2.37;;;2.17;;
18019;SDS011;9135;48.362;10.878;2023-05-07T05:04:14;1.73;;;1.63;;
18019;SDS011;9135;48.362;10.878;2023-05-07T05:06:40;2.47;;;2.28;;
18019;SDS011;9135;48.362;10.878;2023-05-07T05:09:06;2.63;;;1.93;;
18019;SDS011;9135;48.362;10.878;2023-05-07T05:11:32;2.10;;;2.00;;
18019;SDS011;9135;48.362;10.878;2023-05-07T05:13:59;2.55;;;2.20;;
18019;SDS011;9135;48.362;10.878;2023-05-07T05:16:25;3.10;;;1.95;;
18019;SDS011;9135;48.362;10.878;2023-05-07T05:18:51;2.42;;;2.33;;
18019;SDS011;9135;48.362;10.878;2023-05-07T05:21:19;1.88;;;1.77;;
18019;SDS011;9135;48.362;10.878;2023-05-07T05:23:45;3.65;;;2.30;;
18019;SDS011;9135;48.362;10.878;2023-05-07T05:26:11;2.60;;;2.40;;
18019;SDS011;9135;48.362;10.878;2023-05-07T05:28:37;2.25;;;2.15;;
18019;SDS011;9135;48.362;10.878;2023-05-07T05:31:04;2.40;;;2.25;;
18019;SDS011;9135;48.362;10.878;2023-05-07T05:33:30;2.65;;;2.25;;
18019;SDS011;9135;48.362;10.878;2023-05-07T05:35:56;3.20;;;2.92;;
18019;SDS011;9135;48.362;10.878;2023-05-07T05:38:22;2.70;;;1.92;;
18019;SDS011;9135;48.362;10.878;2023-05-07T05:40:48;2.70;;;1.98;;
18019;SDS011;9135;48.362;10.878;2023-05-07T05:43:14;2.20;;;2.03;;
18019;SDS011;9135;48.362;10.878;2023-05-07T05:45:40;2.28;;;2.17;;
18019;SDS011;9135;48.362;10.878;2023-05-07T05:48:06;3.85;;;3.55;;
18019;SDS011;9135;48.362;10.878;2023-05-07T05:50:33;5.43;;;3.20;;
18019;SDS011;9135;48.362;10.878;2023-05-07T05:53:01;2.53;;;2.03;;
18019;SDS011;9135;48.362;10.878;2023-05-07T05:55:27;1.85;;;1.75;;
18019;SDS011;9135;48.362;10.878;2023-05-07T05:57:53;2.20;;;2.13;;
18019;SDS011;9135;48.362;10.878;2023-05-07T06:00:19;2.67;;;2.47;;
18019;SDS011;9135;48.362;10.878;2023-05-07T06:02:47;2.72;;;2.45;;
18019;SDS011;9135;48.362;10.878;2023-05-07T06:05:13;3.38;;;2.88;;
18019;SDS011;9135;48.362;10.878;2023-05-07T06:07:39;5.10;;;3.10;;
18019;SDS011;9135;48.362;10.878;2023-05-07T06:10:06;3.38;;;2.63;;
18019;SDS011;9135;48.362;10.878;2023-05-07T06:12:32;3.13;;;2.28;;
18019;SDS011;9135;48.362;10.878;2023-05-07T06:14:58;4.50;;;2.53;;
18019;SDS011;9135;48.362;10.878;2023-05-07T06:17:24;2.38;;;1.95;;
18019;SDS011;9135;48.362;10.878;2023-05-07T06:19:50;2.53;;;2.28;;
18019;SDS011;9135;48.362;10.878;2023-05-07T06:22:16;2.13;;;1.83;;
18019;SDS011;9135;48.362;10.878;2023-05-07T06:24:42;2.95;;;2.65;;
18019;SDS011;9135;48.362;10.878;2023-05-07T06:27:08;2.72;;;2.05;;
18019;SDS011;9135;48.362;10.878;2023-05-07T06:29:37;2.15;;;1.95;;
18019;SDS011;9135;48.362;10.878;2023-05-07T06:32:07;2.90;;;2.33;;
18019;SDS011;9135;48.362;10.878;2023-05-07T06:34:33;2.65;;;2.03;;
18019;SDS011;9135;48.362;10.878;2023-05-07T06:36:59;1.73;;;1.63;;
18019;SDS011;9135;48.362;10.878;2023-05-07T06:39:25;2.03;;;1.92;;
18019;SDS011;9135;48.362;10.878;2023-05-07T06:41:51;2.30;;;2.10;;
18019;SDS011;9135;48.362;10.878;2023-05-07T06:44:17;2.17;;;1.98;;
18019;SDS011;9135;48.362;10.878;2023-05-07T06:46:43;2.00;;;1.90;;
18019;SDS011;9135;48.362;10.878;2023-05-07T06:49:10;2.10;;;1.92;;
18019;SDS011;9135;48.362;10.878;2023-05-07T06:51:36;2.63;;;2.28;;
18019;SDS011;9135;48.362;10.878;2023-05-07T06:54:02;2.40;;;2.20;;
18019;SDS011;9135;48.362;10.878;2023-05-07T06:56:29;2.88;;;2.67;;
18019;SDS011;9135;48.362;10.878;2023-05-07T06:58:55;2.28;;;2.15;;
18019;SDS011;9135;48.362;10.878;2023-05-07T07:01:21;3.35;;;2.60;;
18019;SDS011;9135;48.362;10.878;2023-05-07T07:03:47;2.45;;;1.88;;
18019;SDS011;9135;48.362;10.878;2023-05-07T07:06:13;2.47;;;2.35;;
18019;SDS011;9135;48.362;10.878;2023-05-07T07:08:39;2.03;;;1.92;;
18019;SDS011;9135;48.362;10.878;2023-05-07T07:11:05;3.50;;;2.10;;
18019;SDS011;9135;48.362;10.878;2023-05-07T07:13:31;2.92;;;2.63;;
18019;SDS011;9135;48.362;10.878;2023-05-07T07:15:58;2.58;;;2.38;;
18019;SDS011;9135;48.362;10.878;2023-05-07T07:18:24;2.22;;;2.05;;
18019;SDS011;9135;48.362;10.878;2023-05-07T07:20:50;2.88;;;1.92;;
18019;SDS011;9135;48.362;10.878;2023-05-07T07:23:16;2.65;;;2.47;;
18019;SDS011;9135;48.362;10.878;2023-05-07T07:25:42;3.05;;;2.15;;
18019;SDS011;9135;48.362;10.878;2023-05-07T07:28:08;3.65;;;2.20;;
18019;SDS011;9135;48.362;10.878;2023-05-07T07:30:35;2.15;;;1.95;;
18019;SDS011;9135;48.362;10.878;2023-05-07T07:33:01;2.30;;;2.13;;
18019;SDS011;9135;48.362;10.878;2023-05-07T07:35:31;2.58;;;2.10;;
18019;SDS011;9135;48.362;10.878;2023-05-07T07:37:57;3.03;;;2.72;;
18019;SDS011;9135;48.362;10.878;2023-05-07T07:40:23;2.42;;;1.95;;
18019;SDS011;9135;48.362;10.878;2023-05-07T07:42:50;2.40;;;2.08;;
18019;SDS011;9135;48.362;10.878;2023-05-07T07:45:16;3.22;;;2.55;;
18019;SDS011;9135;48.362;10.878;2023-05-07T07:47:42;2.17;;;1.98;;
18019;SDS011;9135;48.362;10.878;2023-05-07T07:50:08;2.35;;;2.05;;
18019;SDS011;9135;48.362;10.878;2023-05-07T07:52:34;1.90;;;1.80;;
18019;SDS011;9135;48.362;10.878;2023-05-07T07:55:01;3.90;;;2.22;;
18019;SDS011;9135;48.362;10.878;2023-05-07T07:57:27;3.33;;;1.67;;
18019;SDS011;9135;48.362;10.878;2023-05-07T07:59:53;2.83;;;2.63;;
18019;SDS011;9135;48.362;10.878;2023-05-07T08:02:19;2.60;;;2.40;;
18019;SDS011;9135;48.362;10.878;2023-05-07T08:04:45;2.17;;;2.00;;
18019;SDS011;9135;48.362;10.878;2023-05-07T08:07:11;3.05;;;2.53;;
18019;SDS011;9135;48.362;10.878;2023-05-07T08:09:38;2.05;;;1.83;;
18019;SDS011;9135;48.362;10.878;2023-05-07T08:12:07;3.25;;;2.20;;
18019;SDS011;9135;48.362;10.878;2023-05-07T08:14:34;3.33;;;2.17;;
18019;SDS011;9135;48.362;10.878;2023-05-07T08:17:01;3.88;;;1.92;;
18019;SDS011;9135;48.362;10.878;2023-05-07T08:19:27;2.65;;;2.35;;
18019;SDS011;9135;48.362;10.878;2023-05-07T08:21:53;6.05;;;2.22;;
18019;SDS011;9135;48.362;10.878;2023-05-07T08:24:22;2.05;;;1.75;;
18019;SDS011;9135;48.362;10.878;2023-05-07T08:26:48;2.55;;;2.17;;
18019;SDS011;9135;48.362;10.878;2023-05-07T08:29:14;2.97;;;2.30;;
18019;SDS011;9135;48.362;10.878;2023-05-07T08:31:40;2.10;;;1.90;;
18019;SDS011;9135;48.362;10.878;2023-05-07T08:34:06;2.28;;;2.08;;
18019;SDS011;9135;48.362;10.878;2023-05-07T08:36:32;1.80;;;1.48;;
18019;SDS011;9135;48.362;10.878;2023-05-07T08:38:59;1.60;;;1.40;;
18019;SDS011;9135;48.362;10.878;2023-05-07T08:41:25;4.55;;;1.55;;
18019;SDS011;9135;48.362;10.878;2023-05-07T08:43:51;1.73;;;1.63;;
18019;SDS011;9135;48.362;10.878;2023-05-07T08:46:18;1.90;;;1.73;;
18019;SDS011;9135;48.362;10.878;2023-05-07T08:48:45;2.40;;;2.10;;
18019;SDS011;9135;48.362;10.878;2023-05-07T08:51:15;2.78;;;1.77;;
18019;SDS011;9135;48.362;10.878;2023-05-07T08:53:41;2.17;;;1.98;;
18019;SDS011;9135;48.362;10.878;2023-05-07T08:56:10;1.98;;;1.30;;
18019;SDS011;9135;48.362;10.878;2023-05-07T08:58:37;1.52;;;1.50;;
18019;SDS011;9135;48.362;10.878;2023-05-07T09:01:06;2.17;;;1.88;;
18019;SDS011;9135;48.362;10.878;2023-05-07T09:03:33;0.93;;;0.93;;
18019;SDS011;9135;48.362;10.878;2023-05-07T09:05:59;2.88;;;1.83;;
18019;SDS011;9135;48.362;10.878;2023-05-07T09:08:26;1.00;;;1.00;;
18019;SDS011;9135;48.362;10.878;2023-05-07T09:10:52;2.22;;;2.03;;
18019;SDS011;9135;48.362;10.878;2023-05-07T09:13:18;1.30;;;1.30;;
18019;SDS011;9135;48.362;10.878;2023-05-07T09:15:45;2.65;;;2.45;;
18019;SDS011;9135;48.362;10.878;2023-05-07T09:18:12;1.88;;;1.77;;
18019;SDS011;9135;48.362;10.878;2023-05-07T09:20:38;1.00;;;1.00;;
18019;SDS011;9135;48.362;10.878;2023-05-07T09:23:05;1.13;;;1.13;;
18019;SDS011;9135;48.362;10.878;2023-05-07T09:25:32;4.43;;;1.55;;
18019;SDS011;9135;48.362;10.878;2023-05-07T09:27:59;1.67;;;1.55;;
18019;SDS011;9135;48.362;10.878;2023-05-07T09:30:28;2.05;;;1.58;;
18019;SDS011;9135;48.362;10.878;2023-05-07T09:32:56;2.35;;;2.15;;
18019;SDS011;9135;48.362;10.878;2023-05-07T09:35:22;1.63;;;1.50;;
18019;SDS011;9135;48.362;10.878;2023-05-07T09:37:52;2.25;;;1.35;;
18019;SDS011;9135;48.362;10.878;2023-05-07T09:40:28;1.70;;;1.50;;
18019;SDS011;9135;48.362;10.878;2023-05-07T09:42:54;1.17;;;1.17;;
18019;SDS011;9135;48.362;10.878;2023-05-07T09:45:27;1.55;;;1.45;;
18019;SDS011;9135;48.362;10.878;2023-05-07T09:47:54;1.38;;;1.27;;
18019;SDS011;9135;48.362;10.878;2023-05-07T09:50:28;0.90;;;0.90;;
18019;SDS011;9135;48.362;10.878;2023-05-07T09:52:55;1.13;;;1.13;;
18019;SDS011;9135;48.362;10.878;2023-05-07T09:55:21;1.05;;;1.05;;
18019;SDS011;9135;48.362;10.878;2023-05-07T09:57:50;1.25;;;1.15;;
18019;SDS011;9135;48.362;10.878;2023-05-07T10:00:17;1.20;;;1.10;;
18019;SDS011;9135;48.362;10.878;2023-05-07T10:02:44;1.17;;;1.17;;
18019;SDS011;9135;48.362;10.878;2023-05-07T10:05:13;0.80;;;0.80;;
18019;SDS011;9135;48.362;10.878;2023-05-07T10:07:40;0.77;;;0.77;;
18019;SDS011;9135;48.362;10.878;2023-05-07T10:10:07;0.70;;;0.70;;
18019;SDS011;9135;48.362;10.878;2023-05-07T10:12:33;1.65;;;1.17;;
18019;SDS011;9135;48.362;10.878;2023-05-07T10:15:12;0.80;;;0.80;;
18019;SDS011;9135;48.362;10.878;2023-05-07T10:17:39;1.30;;;1.13;;
18019;SDS011;9135;48.362;10.878;2023-05-07T10:20:06;0.93;;;0.93;;
18019;SDS011;9135;48.362;10.878;2023-05-07T10:22:37;1.00;;;0.80;;
18019;SDS011;9135;48.362;10.878;2023-05-07T10:25:04;1.13;;;0.73;;
18019;SDS011;9135;48.362;10.878;2023-05-07T10:27:32;0.75;;;0.60;;
18019;SDS011;9135;48.362;10.878;2023-05-07T10:30:12;0.65;;;0.65;;
18019;SDS011;9135;48.362;10.878;2023-05-07T10:32:45;0.68;;;0.68;;
18019;SDS011;9135;48.362;10.878;2023-05-07T10:35:19;0.70;;;0.70;;
18019;SDS011;9135;48.362;10.878;2023-05-07T10:37:45;0.47;;;0.47;;
18019;SDS011;9135;48.362;10.878;2023-05-07T10:40:12;0.90;;;0.90;;
18019;SDS011;9135;48.362;10.878;2023-05-07T10:42:38;0.70;;;0.70;;
18019;SDS011;9135;48.362;10.878;2023-05-07T10:45:14;1.10;;;1.00;;
18019;SDS011;9135;48.362;10.878;2023-05-07T10:50:26;0.60;;;0.60;;
18019;SDS011;9135;48.362;10.878;2023-05-07T10:55:37;0.70;;;0.70;;
18019;SDS011;9135;48.362;10.878;2023-05-07T11:00:48;2.35;;;1.10;;
18019;SDS011;9135;48.362;10.878;2023-05-07T11:03:14;1.88;;;0.80;;
18019;SDS011;9135;48.362;10.878;2023-05-07T11:05:40;0.93;;;0.85;;
18019;SDS011;9135;48.362;10.878;2023-05-07T11:08:07;0.70;;;0.70;;
18019;SDS011;9135;48.362;10.878;2023-05-07T11:13:19;0.65;;;0.65;;
18019;SDS011;9135;48.362;10.878;2023-05-07T11:16:05;0.57;;;0.57;;
18019;SDS011;9135;48.362;10.878;2023-05-07T11:19:14;0.63;;;0.63;;
18019;SDS011;9135;48.362;10.878;2023-05-07T11:21:36;2.35;;;1.02;;
18019;SDS011;9135;48.362;10.878;2023-05-07T11:24:03;0.77;;;0.77;;
18019;SDS011;9135;48.362;10.878;2023-05-07T11:26:31;0.57;;;0.57;;
18019;SDS011;9135;48.362;10.878;2023-05-07T11:28:57;0.82;;;0.70;;
18019;SDS011;9135;48.362;10.878;2023-05-07T11:31:25;0.57;;;0.57;;
18019;SDS011;9135;48.362;10.878;2023-05-07T11:33:53;0.70;;;0.70;;
18019;SDS011;9135;48.362;10.878;2023-05-07T11:36:20;0.82;;;0.80;;
18019;SDS011;9135;48.362;10.878;2023-05-07T11:38:46;0.90;;;0.90;;
18019;SDS011;9135;48.362;10.878;2023-05-07T11:41:12;1.35;;;1.15;;
18019;SDS011;9135;48.362;10.878;2023-05-07T11:43:52;0.88;;;0.88;;
18019;SDS011;9135;48.362;10.878;2023-05-07T11:46:19;1.33;;;1.23;;
18019;SDS011;9135;48.362;10.878;2023-05-07T11:48:46;0.70;;;0.70;;
18019;SDS011;9135;48.362;10.878;2023-05-07T11:51:12;1.02;;;0.95;;
18019;SDS011;9135;48.362;10.878;2023-05-07T11:53:41;1.08;;;0.98;;
18019;SDS011;9135;48.362;10.878;2023-05-07T11:56:11;0.50;;;0.50;;
18019;SDS011;9135;48.362;10.878;2023-05-07T11:58:37;0.80;;;0.80;;
18019;SDS011;9135;48.362;10.878;2023-05-07T12:01:04;0.63;;;0.63;;
18019;SDS011;9135;48.362;10.878;2023-05-07T12:03:30;0.75;;;0.75;;
18019;SDS011;9135;48.362;10.878;2023-05-07T12:05:56;1.15;;;0.95;;
18019;SDS011;9135;48.362;10.878;2023-05-07T12:08:22;0.90;;;0.90;;
18019;SDS011;9135;48.362;10.878;2023-05-07T12:10:49;1.10;;;1.00;;
18019;SDS011;9135;48.362;10.878;2023-05-07T12:13:22;0.85;;;0.70;;
18019;SDS011;9135;48.362;10.878;2023-05-07T12:15:53;1.90;;;0.90;;
18019;SDS011;9135;48.362;10.878;2023-05-07T12:18:19;0.70;;;0.70;;
18019;SDS011;9135;48.362;10.878;2023-05-07T12:20:45;0.80;;;0.80;;
18019;SDS011;9135;48.362;10.878;2023-05-07T12:23:12;0.95;;;0.70;;
18019;SDS011;9135;48.362;10.878;2023-05-07T12:25:38;0.70;;;0.70;;
18019;SDS011;9135;48.362;10.878;2023-05-07T12:28:05;1.13;;;1.00;;
18019;SDS011;9135;48.362;10.878;2023-05-07T12:30:32;1.65;;;1.52;;
18019;SDS011;9135;48.362;10.878;2023-05-07T12:32:58;1.02;;;1.00;;
18019;SDS011;9135;48.362;10.878;2023-05-07T12:35:31;0.90;;;0.90;;
18019;SDS011;9135;48.362;10.878;2023-05-07T12:37:57;0.88;;;0.88;;
18019;SDS011;9135;48.362;10.878;2023-05-07T12:40:33;0.80;;;0.80;;
18019;SDS011;9135;48.362;10.878;2023-05-07T12:43:00;0.98;;;0.98;;
18019;SDS011;9135;48.362;10.878;2023-05-07T12:45:26;0.98;;;0.98;;
18019;SDS011;9135;48.362;10.878;2023-05-07T12:47:52;1.00;;;1.00;;
18019;SDS011;9135;48.362;10.878;2023-05-07T12:50:19;1.95;;;1.10;;
18019;SDS011;9135;48.362;10.878;2023-05-07T12:52:46;0.95;;;0.90;;
18019;SDS011;9135;48.362;10.878;2023-05-07T12:55:16;0.95;;;0.95;;
18019;SDS011;9135;48.362;10.878;2023-05-07T12:57:43;2.30;;;0.98;;
18019;SDS011;9135;48.362;10.878;2023-05-07T13:00:11;1.10;;;1.10;;
18019;SDS011;9135;48.362;10.878;2023-05-07T13:02:38;1.42;;;0.95;;
18019;SDS011;9135;48.362;10.878;2023-05-07T13:05:04;0.93;;;0.93;;
18019;SDS011;9135;48.362;10.878;2023-05-07T13:07:30;0.90;;;0.90;;
18019;SDS011;9135;48.362;10.878;2023-05-07T13:09:56;0.82;;;0.82;;
18019;SDS011;9135;48.362;10.878;2023-05-07T13:12:22;0.88;;;0.88;;
18019;SDS011;9135;48.362;10.878;2023-05-07T13:14:48;0.63;;;0.63;;
18019;SDS011;9135;48.362;10.878;2023-05-07T13:17:14;0.88;;;0.88;;
18019;SDS011;9135;48.362;10.878;2023-05-07T13:19:40;0.77;;;0.77;;
18019;SDS011;9135;48.362;10.878;2023-05-07T13:22:07;1.05;;;1.05;;
18019;SDS011;9135;48.362;10.878;2023-05-07T13:24:33;1.15;;;1.05;;
18019;SDS011;9135;48.362;10.878;2023-05-07T13:26:59;0.98;;;0.95;;
18019;SDS011;9135;48.362;10.878;2023-05-07T13:29:25;1.10;;;0.88;;
18019;SDS011;9135;48.362;10.878;2023-05-07T13:31:55;0.85;;;0.85;;
18019;SDS011;9135;48.362;10.878;2023-05-07T13:34:21;3.53;;;0.90;;
18019;SDS011;9135;48.362;10.878;2023-05-07T13:36:47;1.08;;;1.08;;
18019;SDS011;9135;48.362;10.878;2023-05-07T13:39:14;1.00;;;1.00;;
18019;SDS011;9135;48.362;10.878;2023-05-07T13:41:40;1.00;;;1.00;;
18019;SDS011;9135;48.362;10.878;2023-05-07T13:44:06;0.90;;;0.90;;
18019;SDS011;9135;48.362;10.878;2023-05-07T13:46:32;0.80;;;0.80;;
18019;SDS011;9135;48.362;10.878;2023-05-07T13:48:58;1.17;;;1.08;;
18019;SDS011;9135;48.362;10.878;2023-05-07T13:51:24;0.90;;;0.90;;
18019;SDS011;9135;48.362;10.878;2023-05-07T13:53:50;1.25;;;1.15;;
18019;SDS011;9135;48.362;10.878;2023-05-07T13:56:17;0.82;;;0.82;;
18019;SDS011;9135;48.362;10.878;2023-05-07T13:58:45;0.93;;;0.93;;
18019;SDS011;9135;48.362;10.878;2023-05-07T14:01:11;0.70;;;0.70;;
18019;SDS011;9135;48.362;10.878;2023-05-07T14:03:37;0.75;;;0.75;;
18019;SDS011;9135;48.362;10.878;2023-05-07T14:06:04;1.10;;;1.10;;
18019;SDS011;9135;48.362;10.878;2023-05-07T14:08:30;1.08;;;1.08;;
18019;SDS011;9135;48.362;10.878;2023-05-07T14:10:56;1.00;;;1.00;;
18019;SDS011;9135;48.362;10.878;2023-05-07T14:13:22;1.08;;;1.05;;
18019;SDS011;9135;48.362;10.878;2023-05-07T14:15:48;0.95;;;0.95;;
18019;SDS011;9135;48.362;10.878;2023-05-07T14:18:15;0.95;;;0.95;;
18019;SDS011;9135;48.362;10.878;2023-05-07T14:20:41;0.90;;;0.90;;
18019;SDS011;9135;48.362;10.878;2023-05-07T14:23:12;1.30;;;0.95;;
18019;SDS011;9135;48.362;10.878;2023-05-07T14:25:39;1.33;;;1.23;;
18019;SDS011;9135;48.362;10.878;2023-05-07T14:28:06;1.67;;;1.58;;
18019;SDS011;9135;48.362;10.878;2023-05-07T14:30:32;1.20;;;1.10;;
18019;SDS011;9135;48.362;10.878;2023-05-07T14:32:58;1.48;;;1.38;;
18019;SDS011;9135;48.362;10.878;2023-05-07T14:35:24;0.80;;;0.80;;
18019;SDS011;9135;48.362;10.878;2023-05-07T14:37:50;1.23;;;0.88;;
18019;SDS011;9135;48.362;10.878;2023-05-07T14:40:16;1.30;;;1.30;;
18019;SDS011;9135;48.362;10.878;2023-05-07T14:42:42;0.90;;;0.90;;
18019;SDS011;9135;48.362;10.878;2023-05-07T14:45:08;1.15;;;1.15;;
18019;SDS011;9135;48.362;10.878;2023-05-07T14:47:35;0.70;;;0.70;;
18019;SDS011;9135;48.362;10.878;2023-05-07T14:50:01;1.48;;;0.73;;
18019;SDS011;9135;48.362;10.878;2023-05-07T14:52:27;1.02;;;0.82;;
18019;SDS011;9135;48.362;10.878;2023-05-07T14:54:53;1.10;;;0.98;;
18019;SDS011;9135;48.362;10.878;2023-05-07T14:57:19;1.00;;;1.00;;